CU-0039 weather

Los Ingleses Airport
Camag├╝ey, Cuba

Public forecast

Using degrees Celsius for public forecast. Weather courtesy of forecast.io.

METAR (pilot weather report)

Closest report is Ignacio Agramonte International Airport, 37.8 nm (70.1 km) NNE. Retrieved 2019/07/24 00:50 UTC (33 minutes ago):

MUCM 240050Z 19003KT 130V230 8000 SCT018 24/23 Q1017

TAF (pilot weather forecast)

Forecast is more than 12 hours old.

Closest forecast is Ignacio Agramonte International Airport, 37.8 nm (70.1 km) NNE. Retrieved 2019/07/23 00:06 UTC (1 day ago):

TAF MUCM 232300Z 2400/2424 18008KT 8000 BKN020 TEMPO 2400/2403 VRB10KT 4000 TSRA SCT018CB BKN020 BECMG 2404/2406 VRB03KT SCT020 TEMPO 2419/2424 06008KT 4000 TSRA SCT018CB BKN020